WetterOnline ( https://www.wetteronline.ch )

Wetter aktuell Mittelndorf

Aktuelles Wetter: Lichtenhain/Mittelndorf (352m)

6-stündlich | Neueste Meldungen
Ortszeit Temperatur Wetter
Fr, 15.11. 13:00 10.5° C bewölkt
Fr, 15.11. 7:00 7.4° C bedeckt
Fr, 15.11. 1:00 5.4° C bewölkt
Do, 14.11. 19:00 3.5° C bewölkt
Do, 14.11. 13:00 6.0° C wolkenlos
Do, 14.11. 7:00 2.4° C bewölkt
Do, 14.11. 1:00 2.9° C bedeckt
Mi, 13.11. 19:00 3.0° C Sprühregen
Ortszeit Temperatur Wetter
Fr, 15.11. 16:30 10.3° C bewölkt
Fr, 15.11. 16:20 10.3° C bewölkt
Fr, 15.11. 16:10 10.3° C bewölkt
Fr, 15.11. 16:00 10.3° C bewölkt
Fr, 15.11. 15:50 10.3° C bewölkt
Fr, 15.11. 15:40 10.3° C bewölkt
Fr, 15.11. 15:30 10.6° C bedeckt
Fr, 15.11. 15:00 10.6° C bewölkt
Ortszeit Relative Feuchte Sichtweite
Fr, 15.11. 13:00 72% 25 km
Fr, 15.11. 7:00 78% 30 km
Fr, 15.11. 1:00 77% 35 km
Do, 14.11. 19:00 78% 30 km
Do, 14.11. 13:00 75% 16 km
Do, 14.11. 7:00 90% 4.6 km
Do, 14.11. 1:00 92% 6 km
Mi, 13.11. 19:00 93% 9 km
Ortszeit Relative Feuchte Sichtweite
Fr, 15.11. 16:30 74% 28 km
Fr, 15.11. 16:20 74% -
Fr, 15.11. 16:10 73% -
Fr, 15.11. 16:00 74% 29 km
Fr, 15.11. 15:50 74% -
Fr, 15.11. 15:40 74% -
Fr, 15.11. 15:30 73% 30 km
Fr, 15.11. 15:00 73% 28 km
Ortszeit Niederschlagsmenge Niederschlagsart
Fr, 15.11. 13:00 0.0 l/m2 in 6 Std. -
Fr, 15.11. 7:00 0.0 l/m2 in 12 Std. -
Fr, 15.11. 1:00 0.0 l/m2 in 6 Std. -
Do, 14.11. 19:00 0.0 l/m2 in 12 Std. -
Do, 14.11. 13:00 0.0 l/m2 in 6 Std. -
Do, 14.11. 7:00 0.1 l/m2 in 12 Std. -
Do, 14.11. 1:00 0.1 l/m2 in 6 Std. Regen
Mi, 13.11. 19:00 2 l/m2 in 12 Std. Regen
Ortszeit Niederschlagsmenge Niederschlagsart
Fr, 15.11. 16:30 0.0 l/m2 in 1 Std. -
Fr, 15.11. 16:20 keine Meldung -
Fr, 15.11. 16:10 keine Meldung -
Fr, 15.11. 16:00 0.0 l/m2 in 1 Std. -
Fr, 15.11. 15:50 keine Meldung -
Fr, 15.11. 15:40 keine Meldung -
Fr, 15.11. 15:30 0.0 l/m2 in 1 Std. -
Fr, 15.11. 15:00 0.0 l/m2 in 1 Std. -
Ortszeit Stärke Spitze Richtung
km/h Bft. km/h Grad Sektor
Fr, 15.11. 13:00 31 5 70 130° SO
Fr, 15.11. 7:00 24 4 54 140° SO
Fr, 15.11. 1:00 14 3 36 100° O
Do, 14.11. 19:00 14 3 36 120° SO
Do, 14.11. 13:00 14 3 36 140° SO
Do, 14.11. 7:00 9 2 24 130° SO
Do, 14.11. 1:00 13 3 22 170° S
Mi, 13.11. 19:00 11 2 17 140° SO
Ortszeit Stärke Spitze Richtung
km/h Bft. km/h Grad Sektor
Fr, 15.11. 16:30 14 3 40 150° SO
Fr, 15.11. 16:20 14 3 - 150° SO
Fr, 15.11. 16:10 18 3 - 150° SO
Fr, 15.11. 16:00 26 4 41 150° SO
Fr, 15.11. 15:50 26 4 - 150° SO
Fr, 15.11. 15:40 22 4 - 140° SO
Fr, 15.11. 15:30 18 3 36 150° SO
Fr, 15.11. 15:00 18 3 43 130° SO
Ortszeit Untergrenze Bedeckung Gattung
total tief tief mittel hoch
Fr, 15.11. 13:00 690 m 7/8 7/8 - - -
Fr, 15.11. 7:00 510 m 8/8 8/8 - - -
Fr, 15.11. 1:00 690 m 7/8 7/8 - - -
Do, 14.11. 19:00 870 m 7/8 7/8 - - -
Do, 14.11. 13:00 - 0/8 0/8 - - -
Do, 14.11. 7:00 210 m 7/8 7/8 - - -
Do, 14.11. 1:00 750 m 8/8 8/8 - - -
Mi, 13.11. 19:00 870 m 4/8 5/8 - - -
Ortszeit Bedeckungsgrad in Achtel und Wolkenuntergrenze
Fr, 15.11. 16:30 5(840m) 8(4500m)
Fr, 15.11. 16:20 5(840m) 8(4500m)
Fr, 15.11. 16:10 4(840m) 8(4500m)
Fr, 15.11. 16:00 4(840m) 8(4500m)
Fr, 15.11. 15:50 4(840m) 8(4500m)
Fr, 15.11. 15:40 7(840m) 8(4500m) 8(6000m)
Fr, 15.11. 15:30 5(720m) 8(900m) 8(4800m)
Fr, 15.11. 15:00 6(720m) 7(930m) 8(9000m)
Ortszeit Luftdruck NN (hPa) Tendenz (hPa in 3 Std.)
Fr, 15.11. 13:00 1003 - 0,8
Fr, 15.11. 7:00 1004 - 1,3
Fr, 15.11. 1:00 1007 - 1,1
Do, 14.11. 19:00 1010 0,0
Do, 14.11. 13:00 1010 - 0,1
Do, 14.11. 7:00 1009 + 1,3
Do, 14.11. 1:00 1007 + 0,8
Mi, 13.11. 19:00 1005 + 0,4
Ortszeit Luftdruck NN (hPa) Tendenz (hPa in 3 Std.)
Fr, 15.11. 16:30 1004 + 1,3
Fr, 15.11. 16:20 1004 keine Meldung
Fr, 15.11. 16:10 1004 keine Meldung
Fr, 15.11. 16:00 1004 + 0,7
Fr, 15.11. 15:50 1004 keine Meldung
Fr, 15.11. 15:40 1004 keine Meldung
Fr, 15.11. 15:30 1004 + 1,0
Fr, 15.11. 15:00 1003 + 0,1
Ortszeit Schneehöhe (cm)
Fr, 15.11. 13:00 0
Fr, 15.11. 7:00 0
Fr, 15.11. 1:00 0
Do, 14.11. 19:00 0
Do, 14.11. 13:00 0
Do, 14.11. 7:00 0
Do, 14.11. 1:00 0
Mi, 13.11. 19:00 0
Ortszeit Schneehöhe (cm)
Fr, 15.11. 16:30 0
Fr, 15.11. 16:20 0
Fr, 15.11. 16:10 0
Fr, 15.11. 16:00 0
Fr, 15.11. 15:50 0
Fr, 15.11. 15:40 0
Fr, 15.11. 15:30 0
Fr, 15.11. 15:00 0
Link zu dieser Seite / Seite empfehlen

Das Wetter in ...